Time;durP1;ratioP1;P1;durP2;ratioP2;P2;SDS_P1;SDS_P2;PMS_P1;PMS_P2;Temp;Humidity;BMP_temperature;BMP_pressure;BME280_temperature;BME280_humidity;BME280_pressure;Samples;Min_cycle;Max_cycle;Signal;HPM_P1;HPM_P2
2023/06/04 00:00:01;;;;;;;4.07;2.63;;;13.70;1.00;;;;;;4948486;28;20481;-72
2023/06/04 00:02:28;;;;;;;2.50;2.30;;;13.70;1.00;;;;;;4950250;28;20588;-72
2023/06/04 00:04:55;;;;;;;5.87;3.17;;;13.80;1.00;;;;;;4949259;28;20468;-73
2023/06/04 00:07:23;;;;;;;3.10;2.70;;;13.80;1.00;;;;;;4947072;28;20478;-72
2023/06/04 00:09:50;;;;;;;3.47;2.37;;;13.80;1.00;;;;;;4947465;28;20526;-72
2023/06/04 00:12:17;;;;;;;3.20;2.60;;;13.80;1.00;;;;;;4948214;28;20482;-72
2023/06/04 00:14:44;;;;;;;2.40;2.20;;;13.80;1.00;;;;;;4947793;28;20598;-71
2023/06/04 00:17:12;;;;;;;3.00;2.37;;;13.80;1.00;;;;;;4950300;28;20484;-72
2023/06/04 00:19:40;;;;;;;5.20;2.67;;;13.80;1.00;;;;;;4950894;28;21881;-71
2023/06/04 00:22:07;;;;;;;2.47;2.27;;;13.70;1.00;;;;;;4949303;28;21365;-73
2023/06/04 00:24:36;;;;;;;3.77;2.60;;;13.70;1.00;;;;;;4948144;28;20566;-73
2023/06/04 00:27:03;;;;;;;2.37;1.97;;;13.60;1.00;;;;;;4950468;28;20487;-74
2023/06/04 00:29:30;;;;;;;2.73;2.00;;;13.60;1.00;;;;;;4952253;28;20518;-73
2023/06/04 00:31:57;;;;;;;3.10;2.17;;;13.50;1.00;;;;;;4945768;28;20486;-74
2023/06/04 00:34:24;;;;;;;3.10;2.00;;;13.40;1.00;;;;;;4946115;28;20558;-74
2023/06/04 00:36:51;;;;;;;3.67;2.40;;;13.40;1.00;;;;;;4949092;28;20564;-74
2023/06/04 00:39:18;;;;;;;6.20;3.07;;;13.30;1.00;;;;;;4949142;28;20476;-74
2023/06/04 00:41:47;;;;;;;2.50;2.27;;;13.20;1.00;;;;;;4942815;28;20477;-74
2023/06/04 00:44:13;;;;;;;3.47;1.97;;;13.20;1.00;;;;;;4945282;28;20509;-75
2023/06/04 00:46:40;;;;;;;2.90;2.50;;;13.20;1.00;;;;;;4947459;28;20478;-74
2023/06/04 00:49:07;;;;;;;3.90;2.40;;;13.20;1.00;;;;;;4945475;28;21008;-74
2023/06/04 00:51:35;;;;;;;3.20;2.40;;;13.20;1.00;;;;;;4944755;28;20486;-74
2023/06/04 00:54:08;;;;;;;2.40;2.10;;;13.20;1.00;;;;;;4948907;28;20554;-74
2023/06/04 00:56:35;;;;;;;3.53;2.33;;;13.10;1.00;;;;;;4942496;28;20970;-74
2023/06/04 00:59:04;;;;;;;10.17;3.47;;;13.00;1.00;;;;;;4943901;28;20491;-74
2023/06/04 01:04:16;;;;;;;2.57;2.37;;;12.90;1.00;;;;;;4962959;28;20468;-74
2023/06/04 01:06:46;;;;;;;4.37;2.60;;;12.80;1.00;;;;;;4959075;28;20510;-74
2023/06/04 01:09:14;;;;;;;3.43;2.60;;;12.80;1.00;;;;;;4963193;28;21007;-74
2023/06/04 01:11:41;;;;;;;3.40;2.37;;;12.70;1.00;;;;;;4962675;28;20477;-74
2023/06/04 01:14:11;;;;;;;3.10;2.40;;;12.70;1.00;;;;;;4963831;28;20484;-74
2023/06/04 01:16:43;;;;;;;3.73;2.87;;;12.60;1.00;;;;;;4963211;28;20476;-73
2023/06/04 01:19:35;;;;;;;3.47;2.20;;;12.60;1.00;;;;;;4965928;28;20595;-74
2023/06/04 01:22:16;;;;;;;2.53;2.33;;;12.60;1.00;;;;;;4961843;28;20513;-73
2023/06/04 01:24:51;;;;;;;3.27;1.97;;;12.60;1.00;;;;;;4960970;28;20549;-74
2023/06/04 01:27:19;;;;;;;4.23;2.67;;;12.50;1.00;;;;;;4970615;28;20480;-73
2023/06/04 01:29:49;;;;;;;3.23;2.30;;;12.50;1.00;;;;;;4962975;28;20470;-74
2023/06/04 01:32:16;;;;;;;5.13;4.70;;;12.50;1.00;;;;;;4967916;28;20456;-74
2023/06/04 01:34:46;;;;;;;2.43;2.20;;;12.50;1.00;;;;;;4963814;28;20552;-73
2023/06/04 01:37:13;;;;;;;2.63;2.43;;;12.40;1.00;;;;;;4968281;28;20451;-74
2023/06/04 01:39:40;;;;;;;2.60;1.70;;;12.40;1.00;;;;;;4965845;28;20492;-73
2023/06/04 01:42:08;;;;;;;3.83;2.33;;;12.40;1.00;;;;;;4971195;28;20925;-73
2023/06/04 01:44:35;;;;;;;3.80;1.87;;;12.40;1.00;;;;;;4966167;28;20473;-73
2023/06/04 01:47:04;;;;;;;3.20;1.90;;;12.40;1.00;;;;;;4964718;28;20479;-74
2023/06/04 01:49:31;;;;;;;4.10;2.10;;;12.40;1.00;;;;;;4966983;28;20511;-72
2023/06/04 01:51:57;;;;;;;3.30;2.03;;;12.40;1.00;;;;;;4968524;28;20468;-73
2023/06/04 01:54:25;;;;;;;3.93;2.43;;;12.30;1.00;;;;;;4969971;28;20500;-73
2023/06/04 01:56:51;;;;;;;2.47;2.20;;;12.30;1.00;;;;;;4964698;28;25601;-72
2023/06/04 01:59:18;;;;;;;2.13;1.90;;;12.20;1.00;;;;;;4966535;28;20551;-73
2023/06/04 02:01:45;;;;;;;3.70;2.23;;;12.20;1.00;;;;;;4966734;28;20449;-73
2023/06/04 02:04:14;;;;;;;2.90;2.03;;;12.10;1.00;;;;;;4966369;28;20467;-73
2023/06/04 02:06:40;;;;;;;3.90;2.00;;;12.10;1.00;;;;;;4963472;28;21000;-73
2023/06/04 02:09:07;;;;;;;2.20;1.70;;;12.00;1.00;;;;;;4965809;28;20550;-73
2023/06/04 02:11:34;;;;;;;3.40;2.00;;;12.00;1.00;;;;;;4965421;28;20993;-73
2023/06/04 02:14:01;;;;;;;2.00;1.80;;;11.90;1.00;;;;;;4964576;28;20511;-73
2023/06/04 02:16:28;;;;;;;3.90;2.60;;;11.90;1.00;;;;;;4965554;28;20472;-72
2023/06/04 02:18:55;;;;;;;2.90;2.37;;;11.80;1.00;;;;;;4966025;28;20456;-73
2023/06/04 02:21:23;;;;;;;3.90;1.77;;;11.80;1.00;;;;;;4965625;28;20468;-74
2023/06/04 02:23:50;;;;;;;2.23;2.03;;;11.70;1.00;;;;;;4965763;28;20542;-73
2023/06/04 02:26:17;;;;;;;13.03;2.80;;;11.70;1.00;;;;;;4966197;28;20571;-74
2023/06/04 02:28:44;;;;;;;2.63;2.23;;;11.60;1.00;;;;;;4963659;28;20559;-74
2023/06/04 02:31:11;;;;;;;2.67;2.13;;;11.60;1.00;;;;;;4967833;28;20515;-74
2023/06/04 02:33:39;;;;;;;2.30;1.73;;;11.50;1.00;;;;;;4960890;28;20467;-74
2023/06/04 02:36:06;;;;;;;4.27;2.17;;;11.50;1.00;;;;;;4962322;28;22069;-73
2023/06/04 02:38:34;;;;;;;4.20;3.23;;;11.40;1.00;;;;;;4962985;28;20452;-73
2023/06/04 02:41:01;;;;;;;3.43;2.10;;;11.30;1.00;;;;;;4965144;28;20999;-73
2023/06/04 02:43:28;;;;;;;3.43;2.30;;;11.30;1.00;;;;;;4966201;28;22159;-74
2023/06/04 02:45:55;;;;;;;2.40;2.20;;;11.30;1.00;;;;;;4963699;28;20978;-74
2023/06/04 02:48:23;;;;;;;2.30;1.93;;;11.30;1.00;;;;;;4963389;28;20460;-74
2023/06/04 02:50:50;;;;;;;2.57;1.90;;;11.20;1.00;;;;;;4966133;28;20555;-74
2023/06/04 02:53:17;;;;;;;2.47;2.27;;;11.20;1.00;;;;;;4964490;28;20661;-73
2023/06/04 02:55:46;;;;;;;5.63;2.10;;;11.20;1.00;;;;;;4967503;28;20476;-73
2023/06/04 02:58:14;;;;;;;2.43;1.80;;;11.20;1.00;;;;;;4965886;28;20460;-74
2023/06/04 03:00:41;;;;;;;2.40;2.20;;;11.20;1.00;;;;;;4965649;28;20482;-74
2023/06/04 03:03:08;;;;;;;2.20;2.00;;;11.20;1.00;;;;;;4961692;28;20564;-74
2023/06/04 03:05:36;;;;;;;4.20;2.67;;;11.20;1.00;;;;;;4960682;28;21318;-73
2023/06/04 03:08:04;;;;;;;2.53;1.93;;;11.20;1.00;;;;;;4963828;28;20499;-73
2023/06/04 03:10:32;;;;;;;2.43;2.13;;;11.20;1.00;;;;;;4968089;28;20511;-73
2023/06/04 03:13:00;;;;;;;5.03;2.47;;;11.20;1.00;;;;;;4967433;28;20452;-73
2023/06/04 03:15:27;;;;;;;4.37;2.43;;;11.20;1.00;;;;;;4961912;28;20493;-73
2023/06/04 03:17:54;;;;;;;3.03;2.20;;;11.10;1.00;;;;;;4968202;28;20568;-72
2023/06/04 03:20:24;;;;;;;3.13;2.80;;;11.10;1.00;;;;;;4965205;28;20551;-73
2023/06/04 03:22:51;;;;;;;3.83;2.17;;;11.10;1.00;;;;;;4966255;28;20464;-73
2023/06/04 03:25:18;;;;;;;7.83;3.80;;;11.10;1.00;;;;;;4962825;28;20998;-72
2023/06/04 03:27:45;;;;;;;2.97;2.40;;;11.00;1.00;;;;;;4957751;28;20563;-72
2023/06/04 03:30:14;;;;;;;5.03;2.53;;;11.00;1.00;;;;;;4962407;28;20557;-72
2023/06/04 03:32:41;;;;;;;3.83;1.93;;;11.00;1.00;;;;;;4967720;28;20811;-73
2023/06/04 03:35:09;;;;;;;2.50;1.97;;;11.00;1.00;;;;;;4961365;28;20480;-72
2023/06/04 03:37:36;;;;;;;2.60;2.07;;;11.00;1.00;;;;;;4959265;28;20952;-73
2023/06/04 03:40:06;;;;;;;2.80;2.20;;;11.00;1.00;;;;;;4960879;28;20460;-73
2023/06/04 03:42:32;;;;;;;2.57;1.97;;;11.10;1.00;;;;;;4966724;28;20485;-72
2023/06/04 03:44:59;;;;;;;2.53;2.33;;;11.10;1.00;;;;;;4966960;28;20562;-73
2023/06/04 03:47:28;;;;;;;4.33;3.00;;;11.20;1.00;;;;;;4964520;28;20472;-73
2023/06/04 03:49:55;;;;;;;3.83;2.23;;;11.20;1.00;;;;;;4960261;28;20984;-72
2023/06/04 03:52:21;;;;;;;4.10;2.83;;;11.20;1.00;;;;;;4965756;28;20460;-74
2023/06/04 03:54:48;;;;;;;2.87;2.37;;;11.20;1.00;;;;;;4964413;28;20488;-73
2023/06/04 03:57:15;;;;;;;6.87;2.70;;;11.20;1.00;;;;;;4966054;28;20463;-73
2023/06/04 03:59:42;;;;;;;7.07;2.67;;;11.30;1.00;;;;;;4961896;28;20478;-73
2023/06/04 04:02:09;;;;;;;2.50;2.30;;;11.30;1.00;;;;;;4967194;28;20988;-73
2023/06/04 04:04:37;;;;;;;2.50;1.93;;;11.30;1.00;;;;;;4962319;28;20471;-73
2023/06/04 04:07:04;;;;;;;2.30;2.10;;;11.30;1.00;;;;;;4968441;28;20578;-73
2023/06/04 04:09:31;;;;;;;4.00;2.33;;;11.30;1.00;;;;;;4965143;28;20958;-73
2023/06/04 04:11:58;;;;;;;6.63;2.47;;;11.30;1.00;;;;;;4967536;28;20907;-73
2023/06/04 04:14:25;;;;;;;3.03;2.30;;;11.40;1.00;;;;;;4961772;28;20472;-72
2023/06/04 04:16:52;;;;;;;5.30;2.70;;;11.40;1.00;;;;;;4964582;28;20488;-72
2023/06/04 04:19:19;;;;;;;2.67;2.13;;;11.40;1.00;;;;;;4962627;28;20477;-72
2023/06/04 04:21:48;;;;;;;3.23;2.27;;;11.50;1.00;;;;;;4966974;28;20479;-72
2023/06/04 04:24:23;;;;;;;2.83;1.97;;;11.60;1.00;;;;;;4966065;28;20488;-73
2023/06/04 04:26:53;;;;;;;2.50;2.03;;;11.60;1.00;;;;;;4964358;28;20527;-73
2023/06/04 04:29:22;;;;;;;2.27;1.77;;;11.60;1.00;;;;;;4967165;28;20539;-75
2023/06/04 04:31:49;;;;;;;6.50;2.90;;;11.70;1.00;;;;;;4965980;28;21328;-73
2023/06/04 04:34:16;;;;;;;4.70;2.67;;;11.80;1.00;;;;;;4964006;28;20486;-72
2023/06/04 04:36:43;;;;;;;3.37;1.80;;;11.80;1.00;;;;;;4965817;28;20460;-72
2023/06/04 04:39:12;;;;;;;2.77;2.50;;;11.90;1.00;;;;;;4968319;28;20911;-74
2023/06/04 04:41:40;;;;;;;6.10;5.13;;;12.00;1.00;;;;;;4968796;28;20511;-73
2023/06/04 04:44:07;;;;;;;4.30;2.63;;;12.00;1.00;;;;;;4965335;28;20462;-74
2023/06/04 04:46:34;;;;;;;4.70;2.30;;;12.10;1.00;;;;;;4963834;28;20464;-72
2023/06/04 04:49:02;;;;;;;5.97;3.50;;;12.20;1.00;;;;;;4965129;28;20461;-73
2023/06/04 04:51:29;;;;;;;3.97;2.60;;;12.30;1.00;;;;;;4964949;28;20466;-72
2023/06/04 04:53:56;;;;;;;2.90;2.03;;;12.30;1.00;;;;;;4960574;28;20887;-71
2023/06/04 04:56:25;;;;;;;4.40;2.60;;;12.40;1.00;;;;;;4965221;28;20551;-73
2023/06/04 04:58:52;;;;;;;6.10;4.90;;;12.50;1.00;;;;;;4966215;28;20465;-73
2023/06/04 05:01:19;;;;;;;3.40;2.20;;;12.60;1.00;;;;;;4966150;28;20578;-73
2023/06/04 05:03:46;;;;;;;1.70;1.60;;;12.80;1.00;;;;;;4964952;28;20574;-74
2023/06/04 05:06:13;;;;;;;4.63;4.23;;;13.00;1.00;;;;;;4965046;28;20542;-74
2023/06/04 05:08:42;;;;;;;6.07;2.27;;;13.10;1.00;;;;;;4965487;28;20600;-74
2023/06/04 05:11:09;;;;;;;2.97;2.27;;;13.20;1.00;;;;;;4959972;28;21176;-75
2023/06/04 05:13:37;;;;;;;2.83;2.10;;;13.30;1.00;;;;;;4954959;28;20484;-74
2023/06/04 05:16:06;;;;;;;2.40;2.00;;;13.50;1.00;;;;;;4960648;28;20598;-74
2023/06/04 05:18:33;;;;;;;2.57;2.20;;;13.50;1.00;;;;;;4963428;28;20473;-73
2023/06/04 05:21:02;;;;;;;2.10;1.90;;;13.50;1.00;;;;;;4963191;28;20456;-74
2023/06/04 05:23:29;;;;;;;2.43;1.80;;;13.50;1.00;;;;;;4959613;28;22001;-73
2023/06/04 05:25:56;;;;;;;4.17;2.17;;;13.60;1.00;;;;;;4960474;28;20876;-72
2023/06/04 05:28:24;;;;;;;4.50;2.37;;;13.80;1.00;;;;;;4956826;28;20496;-75
2023/06/04 05:30:58;;;;;;;28.93;5.43;;;13.80;1.00;;;;;;4960949;28;20467;-75
2023/06/04 05:33:25;;;;;;;11.00;3.50;;;14.00;1.00;;;;;;4959449;28;20519;-73
2023/06/04 05:35:53;;;;;;;5.27;1.80;;;14.20;1.00;;;;;;4963313;28;20567;-72
2023/06/04 05:38:25;;;;;;;4.80;2.07;;;14.40;1.00;;;;;;4955731;28;20479;-73
2023/06/04 05:40:52;;;;;;;2.27;2.07;;;14.50;1.00;;;;;;4958714;28;21902;-73
2023/06/04 05:43:19;;;;;;;2.37;2.10;;;14.50;1.00;;;;;;4962710;28;20450;-74
2023/06/04 05:45:46;;;;;;;1.90;1.53;;;14.70;1.00;;;;;;4959917;28;20486;-73
2023/06/04 05:48:14;;;;;;;5.20;2.47;;;14.80;1.00;;;;;;4957002;28;20554;-74
2023/06/04 05:50:42;;;;;;;3.20;2.20;;;15.00;1.00;;;;;;4958087;28;20542;-73
2023/06/04 05:53:09;;;;;;;2.77;1.87;;;15.00;1.00;;;;;;4959055;28;20526;-73
2023/06/04 05:55:36;;;;;;;3.60;1.80;;;15.20;1.00;;;;;;4960570;28;22878;-74
2023/06/04 05:58:05;;;;;;;3.45;2.28;;;15.30;1.00;;;;;;4961345;28;20436;-74
2023/06/04 06:00:32;;;;;;;3.37;1.93;;;15.40;1.00;;;;;;4965939;28;20266;-75
2023/06/04 06:02:59;;;;;;;2.90;1.63;;;15.60;1.00;;;;;;4961856;28;20467;-75
2023/06/04 06:05:27;;;;;;;1.83;1.40;;;15.80;1.00;;;;;;4961927;28;20557;-72
2023/06/04 06:07:55;;;;;;;2.97;1.93;;;16.00;1.00;;;;;;4962967;28;20464;-73
2023/06/04 06:10:23;;;;;;;5.77;2.67;;;16.10;1.00;;;;;;4965473;28;20476;-73
2023/06/04 06:12:50;;;;;;;2.47;1.70;;;16.10;1.00;;;;;;4964370;28;20494;-74
2023/06/04 06:15:17;;;;;;;2.67;1.70;;;16.10;1.00;;;;;;4965499;28;20461;-73
2023/06/04 06:17:44;;;;;;;3.33;2.10;;;16.30;1.00;;;;;;4964824;28;20483;-75
2023/06/04 06:20:12;;;;;;;3.90;1.87;;;16.50;1.00;;;;;;4967366;28;20566;-74
2023/06/04 06:22:40;;;;;;;2.80;1.70;;;16.60;1.00;;;;;;4965431;28;20546;-73
2023/06/04 06:25:08;;;;;;;2.63;2.00;;;16.90;1.00;;;;;;4960500;28;21968;-75
2023/06/04 06:27:35;;;;;;;2.40;1.40;;;16.90;1.00;;;;;;4963737;28;20498;-74
2023/06/04 06:30:02;;;;;;;2.13;1.70;;;17.00;1.00;;;;;;4964954;28;20566;-75
2023/06/04 06:32:29;;;;;;;2.90;1.80;;;17.10;1.00;;;;;;4961501;28;22155;-74
2023/06/04 06:34:56;;;;;;;1.60;1.47;;;17.20;1.00;;;;;;4966631;28;20605;-73
2023/06/04 06:37:23;;;;;;;2.67;1.57;;;17.30;1.00;;;;;;4963366;28;20583;-74
2023/06/04 06:39:51;;;;;;;5.47;1.80;;;17.40;1.00;;;;;;4963425;28;20441;-74
2023/06/04 06:42:19;;;;;;;4.43;1.57;;;17.30;1.00;;;;;;4968038;28;20484;-74
2023/06/04 06:44:46;;;;;;;1.60;1.50;;;17.30;1.00;;;;;;4964810;28;20469;-74
2023/06/04 06:47:14;;;;;;;1.90;1.70;;;17.40;1.00;;;;;;4966247;28;20469;-73
2023/06/04 06:49:40;;;;;;;3.20;2.07;;;17.50;1.00;;;;;;4960013;28;20456;-73
2023/06/04 06:52:08;;;;;;;1.77;1.47;;;17.70;1.00;;;;;;4963093;28;20472;-75
2023/06/04 06:54:35;;;;;;;1.93;1.70;;;17.80;1.00;;;;;;4965142;28;20596;-73
2023/06/04 06:57:08;;;;;;;2.83;1.57;;;18.00;1.00;;;;;;4964679;28;20469;-73
2023/06/04 06:59:35;;;;;;;3.50;1.50;;;18.10;1.00;;;;;;4961178;28;20468;-73
2023/06/04 07:02:02;;;;;;;1.30;1.13;;;18.00;1.00;;;;;;4961930;28;20566;-73
2023/06/04 07:04:29;;;;;;;1.70;1.23;;;17.90;1.00;;;;;;4962941;28;20444;-73
2023/06/04 07:06:56;;;;;;;4.23;1.67;;;18.00;1.00;;;;;;4960387;28;20464;-73
2023/06/04 07:09:23;;;;;;;2.00;1.40;;;18.10;1.00;;;;;;4966527;28;20472;-73
2023/06/04 07:11:50;;;;;;;1.73;1.50;;;18.20;1.00;;;;;;4965672;28;20493;-70
2023/06/04 07:14:18;;;;;;;2.03;1.57;;;18.30;1.00;;;;;;4960579;28;20490;-70
2023/06/04 07:16:45;;;;;;;2.03;1.57;;;18.40;1.00;;;;;;4961180;28;20464;-69
2023/06/04 07:19:12;;;;;;;2.53;1.00;;;18.50;1.00;;;;;;4964470;28;20536;-73
2023/06/04 07:21:39;;;;;;;1.53;1.40;;;18.50;1.00;;;;;;4961876;28;20993;-71
2023/06/04 07:24:06;;;;;;;1.63;1.00;;;18.60;1.00;;;;;;4963553;28;20512;-72
2023/06/04 07:26:33;;;;;;;1.70;1.60;;;18.80;1.00;;;;;;4958802;28;23310;-71
2023/06/04 07:29:00;;;;;;;3.70;1.77;;;18.90;1.00;;;;;;4963836;28;21323;-71
2023/06/04 07:31:29;;;;;;;2.70;1.50;;;18.90;1.00;;;;;;4964774;28;20468;-71
2023/06/04 07:33:55;;;;;;;1.83;1.27;;;18.90;1.00;;;;;;4960184;28;20525;-71
2023/06/04 07:36:22;;;;;;;2.53;1.50;;;19.00;1.00;;;;;;4962734;28;20523;-70
2023/06/04 07:38:50;;;;;;;2.10;1.50;;;19.10;1.00;;;;;;4963181;28;20527;-71
2023/06/04 07:41:16;;;;;;;1.63;1.10;;;19.20;1.00;;;;;;4962889;28;20540;-71
2023/06/04 07:43:44;;;;;;;1.50;1.27;;;19.30;1.00;;;;;;4962982;28;20471;-71
2023/06/04 07:46:11;;;;;;;2.87;1.60;;;19.40;1.00;;;;;;4962576;28;20457;-71
2023/06/04 07:48:39;;;;;;;2.77;1.63;;;19.60;1.00;;;;;;4962472;28;20543;-71
2023/06/04 07:51:07;;;;;;;2.57;1.63;;;19.80;1.00;;;;;;4962940;28;20549;-70
2023/06/04 07:53:33;;;;;;;2.37;1.43;;;20.00;1.00;;;;;;4960885;28;20455;-70
2023/06/04 07:56:00;;;;;;;2.67;1.13;;;20.20;1.00;;;;;;4960945;28;20435;-71
2023/06/04 07:58:27;;;;;;;5.70;1.67;;;20.30;1.00;;;;;;4964952;28;20476;-72
2023/06/04 08:00:55;;;;;;;2.07;1.03;;;20.50;1.00;;;;;;4961505;28;21050;-71
2023/06/04 08:03:21;;;;;;;3.37;1.27;;;20.50;1.00;;;;;;4961821;28;20889;-71
2023/06/04 08:05:50;;;;;;;3.53;1.20;;;20.60;1.00;;;;;;4951036;28;20475;-72
2023/06/04 08:08:17;;;;;;;3.30;2.10;;;20.30;1.00;;;;;;4965482;28;20550;-71
2023/06/04 08:10:43;;;;;;;1.87;1.00;;;20.30;1.00;;;;;;4963761;28;20553;-72
2023/06/04 08:13:11;;;;;;;3.03;1.30;;;20.40;1.00;;;;;;4966337;28;20467;-71
2023/06/04 08:15:38;;;;;;;5.27;1.87;;;20.50;1.00;;;;;;4964615;28;20535;-69
2023/06/04 08:18:05;;;;;;;2.93;1.17;;;20.50;1.00;;;;;;4960790;28;20527;-71
2023/06/04 08:20:32;;;;;;;2.17;1.33;;;20.80;1.00;;;;;;4963632;28;20574;-70
2023/06/04 08:23:01;;;;;;;1.97;1.10;;;21.10;1.00;;;;;;4968379;28;20506;-70
2023/06/04 08:25:29;;;;;;;3.33;1.00;;;21.20;1.00;;;;;;4967041;28;20476;-71
2023/06/04 08:27:57;;;;;;;3.27;1.30;;;21.20;1.00;;;;;;4965032;28;20548;-68
2023/06/04 08:30:25;;;;;;;1.43;1.13;;;21.20;1.00;;;;;;4960868;28;20490;-71
2023/06/04 08:32:52;;;;;;;2.17;1.03;;;21.30;1.00;;;;;;4961421;28;20496;-70
2023/06/04 08:35:19;;;;;;;1.87;1.27;;;21.40;1.00;;;;;;4967797;28;20429;-69
2023/06/04 08:37:46;;;;;;;2.07;1.13;;;21.40;1.00;;;;;;4966437;28;20466;-71
2023/06/04 08:40:14;;;;;;;1.47;1.20;;;21.50;1.00;;;;;;4960897;28;20488;-69
2023/06/04 08:42:44;;;;;;;1.70;1.27;;;21.50;1.00;;;;;;4962734;28;20897;-68
2023/06/04 08:45:13;;;;;;;3.43;0.97;;;21.60;1.00;;;;;;4958859;28;21668;-70
2023/06/04 08:47:44;;;;;;;3.57;1.50;;;21.50;1.00;;;;;;4960600;28;20474;-71
2023/06/04 08:50:13;;;;;;;1.40;1.30;;;21.60;1.00;;;;;;4965002;28;20486;-71
2023/06/04 08:52:40;;;;;;;1.63;1.37;;;21.40;1.00;;;;;;4965964;28;20467;-70
2023/06/04 08:55:10;;;;;;;1.60;1.00;;;21.50;1.00;;;;;;4962965;28;20651;-70
2023/06/04 08:57:39;;;;;;;1.57;1.30;;;21.40;1.00;;;;;;4963891;28;20918;-72
2023/06/04 09:00:09;;;;;;;2.10;1.20;;;21.50;1.00;;;;;;4964095;28;20475;-70
2023/06/04 09:02:38;;;;;;;1.57;1.47;;;21.70;1.00;;;;;;4963422;28;20462;-70
2023/06/04 09:05:08;;;;;;;1.70;1.17;;;21.80;1.00;;;;;;4964071;28;20468;-70
2023/06/04 09:07:36;;;;;;;2.97;2.20;;;22.00;1.00;;;;;;4962130;28;20471;-70
2023/06/04 09:10:05;;;;;;;6.37;1.97;;;22.20;1.00;;;;;;4963433;28;20477;-70
2023/06/04 09:12:34;;;;;;;2.93;1.27;;;22.40;1.00;;;;;;4960902;28;20960;-69
2023/06/04 09:15:02;;;;;;;1.60;1.10;;;22.50;1.00;;;;;;4960152;28;20553;-70
2023/06/04 09:17:32;;;;;;;2.10;1.20;;;22.30;1.00;;;;;;4959009;28;21006;-70
2023/06/04 09:19:59;;;;;;;1.30;1.17;;;22.10;1.00;;;;;;4962066;28;20478;-70
2023/06/04 09:22:33;;;;;;;1.57;1.03;;;22.30;1.00;;;;;;4959711;28;20914;-70
2023/06/04 09:25:00;;;;;;;4.50;2.00;;;22.50;1.00;;;;;;4961794;28;20464;-70
2023/06/04 09:27:28;;;;;;;1.63;1.17;;;22.70;1.00;;;;;;4959132;28;20468;-70
2023/06/04 09:29:56;;;;;;;2.70;1.53;;;22.90;1.00;;;;;;4963097;28;20507;-71
2023/06/04 09:32:26;;;;;;;1.87;1.40;;;23.10;1.00;;;;;;4962555;28;20524;-71
2023/06/04 09:34:53;;;;;;;3.70;1.30;;;23.40;1.00;;;;;;4964678;28;20468;-71
2023/06/04 09:37:21;;;;;;;2.10;1.90;;;24.10;1.00;;;;;;4968397;28;20970;-71
2023/06/04 09:39:54;;;;;;;4.33;1.47;;;25.70;1.00;;;;;;4966399;28;20473;-70
2023/06/04 09:42:21;;;;;;;9.57;4.43;;;27.40;1.00;;;;;;4963230;28;20473;-70
2023/06/04 09:44:49;;;;;;;2.50;1.30;;;28.70;1.00;;;;;;4962388;28;20553;-71
2023/06/04 09:47:16;;;;;;;3.10;1.20;;;29.50;1.00;;;;;;4950703;28;20462;-72
2023/06/04 09:49:46;;;;;;;2.13;1.20;;;29.90;1.00;;;;;;4970339;28;20538;-72
2023/06/04 09:52:13;;;;;;;1.63;1.30;;;30.10;1.00;;;;;;4968504;28;20483;-71
2023/06/04 09:54:42;;;;;;;2.50;2.10;;;30.80;1.00;;;;;;4962784;28;20476;-70
2023/06/04 09:57:16;;;;;;;2.40;1.37;;;31.20;1.00;;;;;;4966770;28;20460;-70
2023/06/04 09:59:45;;;;;;;1.20;1.10;;;31.30;1.00;;;;;;4966884;28;20480;-70
2023/06/04 10:02:13;;;;;;;1.63;1.47;;;31.90;1.00;;;;;;4963469;28;20494;-70
2023/06/04 10:04:42;;;;;;;1.73;1.30;;;32.40;1.00;;;;;;4964636;28;20562;-71
2023/06/04 10:07:12;;;;;;;2.90;1.40;;;32.60;1.00;;;;;;4968865;28;20465;-71
2023/06/04 10:09:45;;;;;;;2.60;1.23;;;32.90;1.00;;;;;;4965109;28;20885;-71
2023/06/04 10:12:14;;;;;;;1.50;1.40;;;33.40;1.00;;;;;;4964387;28;20491;-71
2023/06/04 10:14:45;;;;;;;2.03;1.20;;;33.80;1.00;;;;;;4960762;28;20460;-71
2023/06/04 10:17:14;;;;;;;1.30;1.10;;;34.20;1.00;;;;;;4969004;28;20913;-71
2023/06/04 10:19:45;;;;;;;2.20;0.97;;;34.00;1.00;;;;;;4967537;28;20561;-72
2023/06/04 10:22:13;;;;;;;1.87;1.40;;;34.10;1.00;;;;;;4965933;28;20519;-72
2023/06/04 10:24:40;;;;;;;1.40;1.30;;;34.30;1.00;;;;;;4964343;28;20470;-71
2023/06/04 10:27:10;;;;;;;4.20;3.57;;;34.60;1.00;;;;;;4965808;28;20490;-71
2023/06/04 10:29:38;;;;;;;2.43;1.10;;;34.70;1.00;;;;;;4962370;28;20478;-72
2023/06/04 10:32:05;;;;;;;2.03;1.27;;;34.20;1.00;;;;;;4962961;28;20538;-71
2023/06/04 10:34:33;;;;;;;3.03;1.63;;;34.00;1.00;;;;;;4966833;28;20912;-72
2023/06/04 10:37:00;;;;;;;2.33;1.40;;;34.30;1.00;;;;;;4967734;28;20889;-72
2023/06/04 10:39:29;;;;;;;1.50;1.30;;;34.60;1.00;;;;;;4963595;28;20591;-71
2023/06/04 10:42:00;;;;;;;1.60;1.30;;;34.30;1.00;;;;;;4963264;28;23378;-70
2023/06/04 10:44:27;;;;;;;3.40;1.10;;;34.30;1.00;;;;;;4955242;28;20487;-70
2023/06/04 10:46:54;;;;;;;4.43;1.20;;;33.90;1.00;;;;;;4963822;28;20977;-70
2023/06/04 10:49:27;;;;;;;2.80;1.90;;;34.30;1.00;;;;;;4958741;28;21428;-70
2023/06/04 10:51:56;;;;;;;2.30;1.67;;;35.00;1.00;;;;;;4964770;28;20460;-69
2023/06/04 10:54:27;;;;;;;1.27;1.07;;;35.10;1.00;;;;;;4966412;28;20463;-69
2023/06/04 10:56:54;;;;;;;1.63;1.40;;;35.30;1.00;;;;;;4961305;28;20516;-70
2023/06/04 10:59:24;;;;;;;1.53;1.40;;;35.30;1.00;;;;;;4967111;28;20490;-70
2023/06/04 11:01:50;;;;;;;3.30;1.40;;;35.60;1.00;;;;;;4965456;28;20460;-69
2023/06/04 11:04:25;;;;;;;2.53;1.63;;;35.20;1.00;;;;;;4966926;28;20495;-69
2023/06/04 11:07:03;;;;;;;1.30;1.07;;;35.30;1.00;;;;;;4960497;28;20503;-69
2023/06/04 11:09:32;;;;;;;4.30;1.77;;;35.70;1.00;;;;;;4957282;28;20478;-71
2023/06/04 11:12:00;;;;;;;6.20;2.73;;;36.00;1.00;;;;;;4965544;28;20692;-71
2023/06/04 11:14:27;;;;;;;2.37;1.50;;;36.30;1.00;;;;;;4965862;28;20495;-72
2023/06/04 11:16:54;;;;;;;1.50;1.40;;;36.60;1.00;;;;;;4965050;28;20931;-71
2023/06/04 11:19:21;;;;;;;1.70;1.40;;;36.70;1.00;;;;;;4957814;28;20668;-70
2023/06/04 11:21:49;;;;;;;1.50;1.40;;;37.20;1.00;;;;;;4962170;28;20837;-71
2023/06/04 11:24:17;;;;;;;1.80;1.50;;;37.30;1.00;;;;;;4963606;28;20464;-70
2023/06/04 11:26:47;;;;;;;1.20;1.10;;;37.70;1.00;;;;;;4965621;28;20465;-70
2023/06/04 11:29:15;;;;;;;2.80;1.83;;;37.90;1.00;;;;;;4970673;28;20954;-74
2023/06/04 11:31:43;;;;;;;3.80;1.50;;;38.30;1.00;;;;;;4967923;28;21412;-71
2023/06/04 11:34:11;;;;;;;3.67;1.20;;;38.70;1.00;;;;;;4971189;28;20568;-71
2023/06/04 11:36:39;;;;;;;2.00;1.57;;;39.00;1.00;;;;;;4967761;28;20555;-70
2023/06/04 11:39:06;;;;;;;2.77;1.80;;;39.00;1.00;;;;;;4970538;28;20873;-70
2023/06/04 11:41:35;;;;;;;1.43;1.30;;;38.40;1.00;;;;;;4963891;28;20461;-73
2023/06/04 11:44:05;;;;;;;2.23;1.70;;;38.60;1.00;;;;;;4965473;28;20479;-70
2023/06/04 11:46:33;;;;;;;4.20;2.43;;;38.60;1.00;;;;;;4966038;28;20511;-70
2023/06/04 11:49:02;;;;;;;3.70;1.60;;;38.80;1.00;;;;;;4963795;28;20866;-71
2023/06/04 11:51:29;;;;;;;3.07;1.40;;;39.10;1.00;;;;;;4962742;28;20854;-71
2023/06/04 11:53:57;;;;;;;2.40;1.77;;;39.60;1.00;;;;;;4965986;28;20471;-70
2023/06/04 11:56:26;;;;;;;1.60;1.50;;;39.60;1.00;;;;;;4966758;28;20459;-72
2023/06/04 11:58:55;;;;;;;2.23;1.17;;;39.50;1.00;;;;;;4961526;28;20466;-71
2023/06/04 12:01:28;;;;;;;3.10;1.83;;;39.50;1.00;;;;;;4962184;28;20448;-71
2023/06/04 12:03:55;;;;;;;1.23;1.10;;;39.90;1.00;;;;;;4964587;28;22146;-71
2023/06/04 12:06:22;;;;;;;1.63;1.53;;;39.60;1.00;;;;;;4965385;28;20483;-71
2023/06/04 12:08:50;;;;;;;3.40;2.10;;;39.90;1.00;;;;;;4966398;28;20469;-70
2023/06/04 12:11:30;;;;;;;1.90;1.57;;;39.50;1.00;;;;;;4964061;28;20496;-70
2023/06/04 12:13:59;;;;;;;1.43;1.20;;;39.10;1.00;;;;;;4961194;28;20563;-71
2023/06/04 12:16:28;;;;;;;3.73;1.80;;;38.30;1.00;;;;;;4965532;28;21059;-70
2023/06/04 12:19:09;;;;;;;1.63;1.23;;;37.80;1.00;;;;;;4970788;28;20464;-71
2023/06/04 12:21:37;;;;;;;3.20;1.40;;;37.80;1.00;;;;;;4965442;28;20468;-71
2023/06/04 12:24:08;;;;;;;1.90;1.03;;;37.90;1.00;;;;;;4966748;28;20550;-71
2023/06/04 12:26:37;;;;;;;4.03;1.37;;;38.30;1.00;;;;;;4946393;28;20910;-71
2023/06/04 12:29:10;;;;;;;2.97;1.53;;;38.00;1.00;;;;;;4955956;28;20476;-72
2023/06/04 12:31:38;;;;;;;1.93;1.30;;;38.10;1.00;;;;;;4964969;28;20459;-72
2023/06/04 12:34:05;;;;;;;2.30;1.57;;;38.20;1.00;;;;;;4971591;28;20538;-72
2023/06/04 12:36:34;;;;;;;5.60;1.80;;;38.80;1.00;;;;;;4968025;28;20519;-71
2023/06/04 12:39:03;;;;;;;3.43;1.47;;;39.10;1.00;;;;;;4970301;28;20456;-72
2023/06/04 12:41:30;;;;;;;3.00;1.67;;;39.20;1.00;;;;;;4963340;28;20937;-71
2023/06/04 12:43:57;;;;;;;3.43;1.83;;;38.70;1.00;;;;;;4965663;28;20537;-71
2023/06/04 12:46:24;;;;;;;2.27;1.60;;;38.90;1.00;;;;;;4967834;28;20950;-72
2023/06/04 12:48:54;;;;;;;1.97;1.30;;;39.30;1.00;;;;;;4965825;28;20860;-71
2023/06/04 12:51:21;;;;;;;5.23;2.43;;;39.20;1.00;;;;;;4964004;28;20491;-71
2023/06/04 12:53:49;;;;;;;1.90;1.47;;;39.20;1.00;;;;;;4966335;28;20548;-70
2023/06/04 12:56:16;;;;;;;2.00;1.60;;;39.30;1.00;;;;;;4964340;28;20460;-70
2023/06/04 12:58:43;;;;;;;2.40;1.60;;;39.40;1.00;;;;;;4965921;28;20481;-71
2023/06/04 13:01:10;;;;;;;3.80;1.63;;;38.90;1.00;;;;;;4966547;28;20455;-70
2023/06/04 13:03:38;;;;;;;1.60;1.17;;;38.30;1.00;;;;;;4967807;28;20467;-71